Time;durP1;ratioP1;P1;durP2;ratioP2;P2;SDS_P1;SDS_P2;PMS_P1;PMS_P2;Temp;Humidity;BMP_temperature;BMP_pressure;BME280_temperature;BME280_humidity;BME280_pressure;Samples;Min_cycle;Max_cycle;Signal;HPM_P1;HPM_P2
2023/08/29 00:00:14;;;;;;;0.20;0.20;;;;;;;10.14;100.00;101123.72;5116169;28;20055;-50
2023/08/29 00:02:41;;;;;;;0.20;0.20;;;;;;;10.09;100.00;101122.69;5115661;28;20020;-51
2023/08/29 00:05:09;;;;;;;0.20;0.20;;;;;;;9.94;100.00;101125.59;5116616;28;20034;-51
2023/08/29 00:07:35;;;;;;;0.20;0.20;;;;;;;10.10;100.00;101127.00;5116253;28;20024;-51
2023/08/29 00:10:00;;;;;;;0.20;0.20;;;;;;;9.89;100.00;101125.41;5115720;28;20558;-52
2023/08/29 00:12:25;;;;;;;0.20;0.20;;;;;;;10.00;100.00;101123.22;5116160;28;20032;-50
2023/08/29 00:14:51;;;;;;;0.13;0.13;;;;;;;9.93;100.00;101121.25;5116366;28;20069;-50
2023/08/29 00:17:16;;;;;;;0.20;0.20;;;;;;;9.93;100.00;101112.63;5114872;27;20356;-52
2023/08/29 00:19:42;;;;;;;0.20;0.20;;;;;;;9.85;100.00;101115.81;5115965;28;20031;-51
2023/08/29 00:22:07;;;;;;;0.20;0.20;;;;;;;9.99;100.00;101112.88;5116147;28;20106;-51
2023/08/29 00:24:32;;;;;;;0.20;0.20;;;;;;;9.84;100.00;101108.91;5115207;28;20012;-50
2023/08/29 00:26:58;;;;;;;0.20;0.20;;;;;;;9.92;100.00;101109.19;5116127;28;20115;-51
2023/08/29 00:29:23;;;;;;;0.10;0.10;;;;;;;9.85;100.00;101099.50;5115622;28;20095;-51
2023/08/29 00:31:49;;;;;;;0.20;0.20;;;;;;;9.91;100.00;101094.56;5115241;28;20027;-50
2023/08/29 00:34:14;;;;;;;0.20;0.20;;;;;;;9.81;100.00;101093.38;5115712;28;20031;-51
2023/08/29 00:36:39;;;;;;;0.20;0.20;;;;;;;9.72;100.00;101093.00;5115766;28;20047;-51
2023/08/29 00:39:04;;;;;;;0.20;0.20;;;;;;;9.88;100.00;101089.31;5114860;28;20046;-51
2023/08/29 00:41:30;;;;;;;0.20;0.20;;;;;;;9.96;100.00;101094.75;5115719;28;20024;-46
2023/08/29 00:43:56;;;;;;;0.20;0.20;;;;;;;10.00;100.00;101091.44;5115798;28;20070;-51
2023/08/29 00:46:22;;;;;;;0.20;0.20;;;;;;;10.05;100.00;101088.22;5114728;28;20040;-51
2023/08/29 00:48:48;;;;;;;0.20;0.20;;;;;;;10.00;100.00;101088.88;5115799;28;20028;-50
2023/08/29 00:51:14;;;;;;;0.20;0.20;;;;;;;10.01;100.00;101085.50;5114494;28;20090;-48
2023/08/29 00:53:39;;;;;;;0.20;0.20;;;;;;;9.98;100.00;101085.38;5115772;28;20050;-49
2023/08/29 00:56:05;;;;;;;0.20;0.20;;;;;;;10.00;100.00;101094.03;5115460;28;20493;-49
2023/08/29 00:58:32;;;;;;;0.10;0.10;;;;;;;10.17;100.00;101092.03;5114201;28;20024;-50
2023/08/29 01:00:57;;;;;;;0.20;0.20;;;;;;;10.23;100.00;101091.41;5115582;28;20030;-50
2023/08/29 01:03:23;;;;;;;0.10;0.10;;;;;;;10.04;100.00;101086.47;5115137;28;20020;-51
2023/08/29 01:05:48;;;;;;;0.20;0.20;;;;;;;10.05;100.00;101088.22;5114526;28;20482;-49
2023/08/29 01:08:13;;;;;;;0.20;0.20;;;;;;;9.96;100.00;101090.47;5115142;28;20477;-51
2023/08/29 01:11:01;;;;;;;0.10;0.10;;;;;;;10.03;100.00;101088.97;5115271;27;20012;-50
2023/08/29 01:13:37;;;;;;;0.20;0.20;;;;;;;9.85;100.00;101086.63;5114228;28;20026;-49
2023/08/29 01:16:07;;;;;;;0.20;0.20;;;;;;;9.83;100.00;101085.69;5115064;28;20097;-51
2023/08/29 01:18:37;;;;;;;0.20;0.20;;;;;;;9.82;100.00;101083.94;5114572;28;20391;-51
2023/08/29 01:21:17;;;;;;;0.20;0.20;;;;;;;9.82;100.00;101089.09;5114464;28;20167;-52
2023/08/29 01:23:54;;;;;;;0.20;0.20;;;;;;;9.79;100.00;101094.13;5115140;28;20028;-51
2023/08/29 01:26:22;;;;;;;0.20;0.20;;;;;;;9.82;100.00;101092.53;5114026;28;20057;-51
2023/08/29 01:28:48;;;;;;;0.20;0.20;;;;;;;9.73;100.00;101097.34;5114683;28;20745;-51
2023/08/29 01:31:14;;;;;;;0.20;0.20;;;;;;;9.95;100.00;101096.44;5114615;28;20047;-49
2023/08/29 01:33:39;;;;;;;0.20;0.20;;;;;;;9.85;100.00;101092.66;5114186;28;20120;-51
2023/08/29 01:36:05;;;;;;;0.10;0.10;;;;;;;9.87;100.00;101101.28;5114591;28;20020;-51
2023/08/29 01:38:31;;;;;;;0.20;0.20;;;;;;;9.66;100.00;101093.69;5114236;28;20020;-51
2023/08/29 01:40:56;;;;;;;0.20;0.20;;;;;;;9.64;100.00;101089.28;5113995;28;20024;-50
2023/08/29 01:43:21;;;;;;;0.20;0.20;;;;;;;9.59;100.00;101091.69;5114225;28;20027;-51
2023/08/29 01:45:47;;;;;;;0.20;0.20;;;;;;;9.48;100.00;101099.00;5114408;28;20031;-50
2023/08/29 01:48:14;;;;;;;0.20;0.20;;;;;;;9.43;100.00;101092.81;5113513;28;20023;-51
2023/08/29 01:50:41;;;;;;;0.20;0.20;;;;;;;9.46;100.00;101100.63;5114581;28;20020;-52
2023/08/29 01:53:07;;;;;;;0.10;0.10;;;;;;;9.44;100.00;101092.00;5114701;28;20288;-51
2023/08/29 01:55:33;;;;;;;0.20;0.20;;;;;;;9.30;100.00;101099.16;5113160;28;20052;-51
2023/08/29 01:57:59;;;;;;;0.20;0.20;;;;;;;9.23;100.00;101099.75;5114175;27;20024;-48
2023/08/29 02:00:24;;;;;;;0.17;0.17;;;;;;;9.25;100.00;101107.53;5114146;28;20027;-50
2023/08/29 02:02:50;;;;;;;0.20;0.20;;;;;;;9.26;100.00;101101.56;5113409;28;20384;-50
2023/08/29 02:05:15;;;;;;;0.20;0.20;;;;;;;9.23;100.00;101105.78;5113949;28;20023;-50
2023/08/29 02:07:43;;;;;;;0.20;0.20;;;;;;;9.17;100.00;101108.09;5114159;28;20348;-51
2023/08/29 02:10:10;;;;;;;0.20;0.20;;;;;;;9.20;100.00;101109.91;5112509;28;20031;-49
2023/08/29 02:12:36;;;;;;;0.10;0.10;;;;;;;9.13;100.00;101111.38;5113987;28;20023;-50
2023/08/29 02:15:02;;;;;;;0.20;0.20;;;;;;;8.97;100.00;101114.13;5114083;28;20502;-50
2023/08/29 02:17:27;;;;;;;0.15;0.15;;;;;;;8.98;100.00;101116.78;5113112;28;20026;-51
2023/08/29 02:19:53;;;;;;;0.20;0.20;;;;;;;9.08;100.00;101107.75;5113914;28;20031;-51
2023/08/29 02:22:18;;;;;;;0.20;0.20;;;;;;;9.05;100.00;101115.31;5113596;28;20449;-51
2023/08/29 02:24:47;;;;;;;0.20;0.20;;;;;;;9.06;100.00;101114.50;5113005;28;20028;-50
2023/08/29 02:27:12;;;;;;;0.20;0.20;;;;;;;9.09;100.00;101119.78;5113417;28;20027;-51
2023/08/29 02:29:38;;;;;;;0.20;0.20;;;;;;;9.20;100.00;101118.50;5112877;28;20019;-51
2023/08/29 02:32:03;;;;;;;0.20;0.20;;;;;;;9.20;100.00;101128.78;5113793;28;20482;-50
2023/08/29 02:34:29;;;;;;;0.20;0.20;;;;;;;9.25;100.00;101125.53;5113249;28;20035;-51
2023/08/29 02:36:54;;;;;;;0.20;0.20;;;;;;;9.31;100.00;101126.66;5113013;28;20032;-51
2023/08/29 02:39:19;;;;;;;0.20;0.20;;;;;;;9.33;100.00;101140.44;5113159;28;20036;-51
2023/08/29 02:41:45;;;;;;;0.20;0.20;;;;;;;9.39;100.00;101139.81;5113549;28;20022;-50
2023/08/29 02:44:10;;;;;;;0.20;0.20;;;;;;;9.47;100.00;101148.69;5112972;28;20027;-51
2023/08/29 02:46:35;;;;;;;0.10;0.10;;;;;;;9.58;100.00;101140.50;5113384;28;20030;-51
2023/08/29 02:49:00;;;;;;;0.20;0.20;;;;;;;9.66;100.00;101144.28;5113682;28;20012;-50
2023/08/29 02:51:26;;;;;;;0.20;0.20;;;;;;;9.76;100.00;101148.06;5112289;28;20028;-50
2023/08/29 02:53:51;;;;;;;0.20;0.20;;;;;;;9.79;100.00;101149.06;5113350;28;20084;-49
2023/08/29 02:56:16;;;;;;;0.20;0.20;;;;;;;9.83;100.00;101138.06;5113209;28;20071;-51
2023/08/29 02:58:42;;;;;;;0.20;0.20;;;;;;;9.69;100.00;101134.94;5112745;28;20024;-51
2023/08/29 03:01:11;;;;;;;0.20;0.20;;;;;;;9.63;100.00;101139.00;5113511;28;20035;-51
2023/08/29 03:03:37;;;;;;;0.20;0.20;;;;;;;9.62;100.00;101142.38;5113439;28;20095;-49
2023/08/29 03:06:02;;;;;;;0.20;0.20;;;;;;;9.52;100.00;101141.16;5112527;28;20015;-50
2023/08/29 03:08:28;;;;;;;0.20;0.20;;;;;;;9.52;100.00;101147.19;5112920;28;20511;-51
2023/08/29 03:10:54;;;;;;;0.13;0.13;;;;;;;9.58;100.00;101151.72;5113371;28;20024;-51
2023/08/29 03:13:19;;;;;;;0.20;0.20;;;;;;;9.50;100.00;101148.84;5112387;28;20020;-50
2023/08/29 03:15:45;;;;;;;0.20;0.20;;;;;;;9.35;100.00;101149.09;5113365;28;20069;-51
2023/08/29 03:18:11;;;;;;;0.20;0.20;;;;;;;9.33;100.00;101145.59;5113154;28;20023;-52
2023/08/29 03:20:40;;;;;;;0.20;0.20;;;;;;;9.30;100.00;101148.03;5112483;28;20026;-50
2023/08/29 03:23:06;;;;;;;0.20;0.20;;;;;;;9.28;100.00;101146.22;5117253;28;20039;-48
2023/08/29 03:25:31;;;;;;;0.20;0.20;;;;;;;9.28;100.00;101146.22;5116911;28;20024;-50
2023/08/29 03:27:56;;;;;;;0.20;0.20;;;;;;;9.22;100.00;101142.59;5116568;28;20024;-50
2023/08/29 03:30:21;;;;;;;0.20;0.20;;;;;;;9.23;100.00;101144.34;5117011;28;20107;-51
2023/08/29 03:32:50;;;;;;;0.20;0.20;;;;;;;9.20;100.00;101144.22;5117280;28;20027;-51
2023/08/29 03:35:15;;;;;;;0.20;0.20;;;;;;;9.19;100.00;101132.19;5116143;28;20077;-50
2023/08/29 03:37:41;;;;;;;0.20;0.20;;;;;;;9.17;100.00;101128.69;5116976;28;20378;-51
2023/08/29 03:40:07;;;;;;;0.20;0.20;;;;;;;9.09;100.00;101119.78;5116285;28;20027;-51
2023/08/29 03:42:32;;;;;;;0.20;0.20;;;;;;;9.23;100.00;101105.78;5116756;28;20023;-50
2023/08/29 03:44:58;;;;;;;0.20;0.20;;;;;;;9.14;100.00;101114.81;5116993;28;20402;-51
2023/08/29 03:47:23;;;;;;;0.20;0.20;;;;;;;9.11;100.00;101105.28;5115752;28;20034;-50
2023/08/29 03:49:49;;;;;;;0.20;0.20;;;;;;;9.23;100.00;101098.06;5116836;28;20024;-50
2023/08/29 03:52:26;;;;;;;0.25;0.25;;;;;;;9.16;100.00;101101.19;5116463;28;20030;-50
2023/08/29 03:54:55;;;;;;;0.20;0.20;;;;;;;9.11;100.00;101092.44;5115832;28;20074;-51
2023/08/29 03:57:22;;;;;;;0.20;0.20;;;;;;;9.13;100.00;101092.47;5116450;28;20028;-50
2023/08/29 03:59:48;;;;;;;0.15;0.15;;;;;;;9.19;100.00;101095.31;5116610;28;20024;-51
2023/08/29 04:02:13;;;;;;;0.20;0.20;;;;;;;9.01;100.00;101103.16;5115565;28;20049;-50
2023/08/29 04:04:38;;;;;;;0.20;0.20;;;;;;;8.80;100.00;101098.91;5116580;28;20035;-50
2023/08/29 04:07:04;;;;;;;0.20;0.20;;;;;;;8.82;100.00;101088.69;5116389;28;20020;-50
2023/08/29 04:09:30;;;;;;;0.20;0.20;;;;;;;8.66;100.00;101094.91;5115592;28;20016;-51
2023/08/29 04:11:55;;;;;;;0.20;0.20;;;;;;;8.67;100.00;101096.66;5116299;28;20050;-52
2023/08/29 04:14:21;;;;;;;0.20;0.20;;;;;;;8.65;100.00;101095.72;5116253;28;20063;-51
2023/08/29 04:16:47;;;;;;;0.20;0.20;;;;;;;8.65;100.00;101082.84;5115707;28;20026;-51
2023/08/29 04:19:14;;;;;;;0.20;0.20;;;;;;;8.71;100.00;101075.41;5115836;28;20027;-51
2023/08/29 04:21:39;;;;;;;0.20;0.20;;;;;;;8.79;100.00;101076.63;5116087;27;20486;-51
2023/08/29 04:24:05;;;;;;;0.20;0.20;;;;;;;8.75;100.00;101077.28;5115595;28;20073;-51
2023/08/29 04:26:30;;;;;;;0.20;0.20;;;;;;;8.88;100.00;101083.78;5115907;28;20023;-51
2023/08/29 04:28:56;;;;;;;0.20;0.20;;;;;;;8.86;100.00;101086.31;5116076;28;20023;-51
2023/08/29 04:31:22;;;;;;;0.20;0.20;;;;;;;8.99;100.00;101077.41;5114946;28;20027;-51
2023/08/29 04:33:47;;;;;;;0.20;0.20;;;;;;;8.96;100.00;101066.09;5115405;27;20031;-51
2023/08/29 04:36:16;;;;;;;0.25;0.25;;;;;;;8.96;100.00;101068.69;5115148;28;20390;-51
2023/08/29 04:38:44;;;;;;;0.25;0.25;;;;;;;9.01;100.00;101069.75;5115896;28;20097;-49
2023/08/29 04:41:10;;;;;;;0.20;0.20;;;;;;;9.03;100.00;101079.25;5115622;28;20517;-50
2023/08/29 04:43:35;;;;;;;0.20;0.20;;;;;;;9.07;100.00;101070.00;5114770;28;20053;-51
2023/08/29 04:46:00;;;;;;;0.20;0.20;;;;;;;9.01;100.00;101075.78;5115899;28;20340;-48
2023/08/29 04:48:26;;;;;;;0.20;0.20;;;;;;;8.97;100.00;101075.59;5115435;28;20031;-50
2023/08/29 04:50:51;;;;;;;0.20;0.20;;;;;;;9.02;100.00;101068.94;5114900;28;20829;-51
2023/08/29 04:53:17;;;;;;;0.28;0.28;;;;;;;9.14;100.00;101072.00;5115241;28;20019;-47
2023/08/29 04:55:42;;;;;;;0.20;0.20;;;;;;;9.13;100.00;101070.22;5115627;28;20027;-49
2023/08/29 04:58:07;;;;;;;0.20;0.20;;;;;;;9.17;100.00;101077.25;5114745;28;20521;-50
2023/08/29 05:00:33;;;;;;;0.20;0.20;;;;;;;9.20;100.00;101072.22;5115033;28;20107;-51
2023/08/29 05:02:58;;;;;;;0.30;0.30;;;;;;;9.26;100.00;101078.41;5115292;28;20032;-50
2023/08/29 05:05:23;;;;;;;0.20;0.20;;;;;;;9.33;100.00;101072.69;5114172;28;20103;-49
2023/08/29 05:07:49;;;;;;;0.20;0.20;;;;;;;9.37;100.00;101079.69;5115286;28;20019;-48
2023/08/29 05:10:14;;;;;;;0.30;0.30;;;;;;;9.45;100.00;101078.31;5115087;28;20028;-49
2023/08/29 05:12:41;;;;;;;0.20;0.20;;;;;;;9.45;100.00;101073.19;5114392;28;20231;-48
2023/08/29 05:15:07;;;;;;;0.20;0.20;;;;;;;9.44;100.00;101081.69;5115128;28;20031;-51
2023/08/29 05:17:32;;;;;;;0.20;0.20;;;;;;;9.48;100.00;101077.56;5114746;28;20027;-49
2023/08/29 05:19:58;;;;;;;0.20;0.20;;;;;;;9.55;100.00;101082.09;5114025;28;20031;-49
2023/08/29 05:22:23;;;;;;;0.20;0.20;;;;;;;9.63;100.00;101072.09;5114664;28;20015;-51
2023/08/29 05:24:49;;;;;;;0.20;0.20;;;;;;;9.63;100.00;101066.94;5115014;28;20019;-46
2023/08/29 05:27:14;;;;;;;0.20;0.20;;;;;;;9.62;100.00;101066.06;5114026;28;20103;-46
2023/08/29 05:29:41;;;;;;;0.20;0.20;;;;;;;9.67;100.00;101063.66;5114975;27;20367;-46
2023/08/29 05:32:06;;;;;;;0.20;0.20;;;;;;;9.63;100.00;101067.84;5114742;28;20061;-46
2023/08/29 05:34:31;;;;;;;0.20;0.20;;;;;;;9.62;100.00;101078.03;5113671;28;20055;-48
2023/08/29 05:36:57;;;;;;;0.20;0.20;;;;;;;9.62;100.00;101078.03;5114873;28;20363;-50
2023/08/29 05:39:23;;;;;;;0.20;0.20;;;;;;;9.65;100.00;101075.59;5114393;28;20023;-46
2023/08/29 05:41:49;;;;;;;0.20;0.20;;;;;;;9.67;100.00;101076.53;5114017;28;20046;-51
2023/08/29 05:44:14;;;;;;;0.20;0.20;;;;;;;9.73;100.00;101076.75;5113625;28;20059;-50
2023/08/29 05:46:40;;;;;;;0.20;0.20;;;;;;;9.83;100.00;101076.28;5113235;28;20542;-51
2023/08/29 05:49:05;;;;;;;0.13;0.13;;;;;;;9.92;100.00;101074.88;5114337;28;20039;-46
2023/08/29 05:51:31;;;;;;;0.20;0.20;;;;;;;10.00;100.00;101071.72;5114041;28;20019;-50
2023/08/29 05:53:56;;;;;;;0.20;0.20;;;;;;;10.06;100.00;101076.22;5113349;28;20047;-52
2023/08/29 05:56:21;;;;;;;0.20;0.20;;;;;;;10.16;100.00;101080.88;5114251;28;20020;-48
2023/08/29 05:58:47;;;;;;;0.20;0.20;;;;;;;10.24;100.00;101080.25;5114151;28;20055;-51
2023/08/29 06:01:12;;;;;;;0.20;0.20;;;;;;;10.31;100.00;101082.22;5113274;28;20030;-50
2023/08/29 06:03:38;;;;;;;0.20;0.20;;;;;;;10.39;100.00;101080.81;5114080;28;20024;-46
2023/08/29 06:06:03;;;;;;;0.20;0.20;;;;;;;10.53;100.00;101082.19;5114284;28;20020;-51
2023/08/29 06:08:29;;;;;;;0.20;0.20;;;;;;;10.60;100.00;101078.09;5112979;28;20165;-49
2023/08/29 06:10:55;;;;;;;0.20;0.20;;;;;;;10.75;100.00;101085.44;5113949;28;20416;-46
2023/08/29 06:13:20;;;;;;;0.20;0.20;;;;;;;10.79;100.00;101089.88;5113635;28;20107;-50
2023/08/29 06:15:45;;;;;;;0.20;0.20;;;;;;;10.85;100.00;101079.75;5113183;28;20119;-47
2023/08/29 06:18:11;;;;;;;0.20;0.20;;;;;;;10.92;100.00;101079.97;5113702;28;20076;-51
2023/08/29 06:20:36;;;;;;;0.20;0.15;;;;;;;11.05;100.00;101089.81;5114034;28;20027;-50
2023/08/29 06:23:03;;;;;;;0.15;0.15;;;;;;;11.19;100.00;101085.09;5113232;28;20410;-46
2023/08/29 06:25:28;;;;;;;0.10;0.10;;;;;;;11.30;100.00;101083.75;5113409;28;20467;-50
2023/08/29 06:27:54;;;;;;;0.10;0.10;;;;;;;11.47;100.00;101096.28;5113898;28;20047;-50
2023/08/29 06:30:19;;;;;;;0.10;0.10;;;;;;;11.55;100.00;101088.75;5112522;28;20114;-51
2023/08/29 06:32:45;;;;;;;0.10;0.10;;;;;;;11.64;100.00;101086.44;5113578;28;20024;-50
2023/08/29 06:35:11;;;;;;;0.10;0.10;;;;;;;11.77;100.00;101085.94;5113516;28;20168;-46
2023/08/29 06:37:37;;;;;;;0.10;0.10;;;;;;;11.95;100.00;101089.91;5112634;28;20451;-50
2023/08/29 06:40:04;;;;;;;0.10;0.10;;;;;;;12.01;100.00;101087.53;5113564;28;20034;-50
2023/08/29 06:42:30;;;;;;;;;;;;;;;12.13;100.00;101087.84;5113694;28;20028;-51
2023/08/29 06:44:57;;;;;;;0.20;0.20;;;;;;;12.10;100.00;101079.16;5112738;28;19934;-47
2023/08/29 06:47:23;;;;;;;0.20;0.20;;;;;;;12.22;100.00;101079.47;5113336;28;20016;-51
2023/08/29 06:49:48;;;;;;;0.10;0.10;;;;;;;12.30;100.00;101083.16;5113557;28;20037;-46
2023/08/29 06:52:13;;;;;;;0.20;0.20;;;;;;;12.47;100.00;101083.56;5112602;28;20038;-47
2023/08/29 06:54:39;;;;;;;0.10;0.10;;;;;;;12.54;100.00;101081.13;5113346;28;20048;-46
2023/08/29 06:57:04;;;;;;;0.20;0.20;;;;;;;12.62;100.00;101085.66;5112515;28;20045;-51
2023/08/29 06:59:29;;;;;;;0.20;0.20;;;;;;;12.71;100.00;101082.44;5113127;28;20051;-51
2023/08/29 07:01:55;;;;;;;0.10;0.10;;;;;;;12.64;100.00;101083.09;5113130;28;20600;-46
2023/08/29 07:04:20;;;;;;;0.10;0.10;;;;;;;12.94;100.00;101071.78;5112237;28;20028;-49
2023/08/29 07:06:45;;;;;;;0.10;0.10;;;;;;;12.97;100.00;101067.53;5113433;28;20478;-51
2023/08/29 07:09:11;;;;;;;0.10;0.10;;;;;;;13.02;100.00;101075.41;5113316;28;20027;-51
2023/08/29 07:11:36;;;;;;;0.10;0.10;;;;;;;13.10;100.00;101079.03;5112420;28;20023;-46
2023/08/29 07:14:02;;;;;;;0.10;0.10;;;;;;;13.24;100.00;101083.66;5113065;28;20023;-51
2023/08/29 07:16:27;;;;;;;0.10;0.10;;;;;;;13.29;100.00;101082.06;5112955;28;20105;-48
2023/08/29 07:18:52;;;;;;;0.10;0.10;;;;;;;13.35;100.00;101079.59;5112513;28;20417;-45
2023/08/29 07:21:18;;;;;;;0.10;0.10;;;;;;;13.50;100.00;101085.16;5112921;28;20019;-50
2023/08/29 07:23:43;;;;;;;0.10;0.10;;;;;;;13.55;100.00;101086.97;5113254;28;20059;-48
2023/08/29 07:26:08;;;;;;;0.10;0.10;;;;;;;13.68;100.00;101093.25;5112292;28;20039;-50
2023/08/29 07:28:34;;;;;;;0.10;0.10;;;;;;;13.43;100.00;101093.63;5112999;28;20055;-51
2023/08/29 07:30:59;;;;;;;0.10;0.10;;;;;;;13.71;100.00;101089.03;5112956;28;20102;-51
2023/08/29 07:33:25;;;;;;;0.10;0.10;;;;;;;13.88;100.00;101091.06;5112244;28;20102;-46
2023/08/29 07:35:50;;;;;;;0.10;0.10;;;;;;;13.98;100.00;101093.00;5113153;28;20024;-46
2023/08/29 07:38:17;;;;;;;0.10;0.10;;;;;;;13.98;100.00;101090.41;5112828;28;20015;-47
2023/08/29 07:40:46;;;;;;;0.15;0.15;;;;;;;13.99;100.00;101094.75;5112355;28;20031;-46
2023/08/29 07:43:11;;;;;;;0.10;0.10;;;;;;;14.20;100.00;101098.59;5112995;28;20024;-50
2023/08/29 07:45:36;;;;;;;0.10;0.10;;;;;;;14.25;100.00;101103.00;5112814;28;20024;-52
2023/08/29 07:48:02;;;;;;;0.10;0.10;;;;;;;14.34;100.00;101102.31;5112280;28;20019;-50
2023/08/29 07:50:28;;;;;;;0.10;0.10;;;;;;;14.31;100.00;101100.53;5112738;28;20027;-51
2023/08/29 07:52:54;;;;;;;0.10;0.10;;;;;;;14.42;100.00;101100.75;5113005;28;20463;-50
2023/08/29 07:55:20;;;;;;;0.10;0.10;;;;;;;14.62;100.00;101103.66;5111518;28;20491;-52
2023/08/29 07:57:46;;;;;;;0.10;0.10;;;;;;;14.57;100.00;101100.13;5112814;28;20027;-46
2023/08/29 08:00:12;;;;;;;0.10;0.10;;;;;;;14.52;100.00;101090.53;5111744;28;20023;-48
2023/08/29 08:02:38;;;;;;;0.10;0.10;;;;;;;14.74;100.00;101091.78;5112858;28;20031;-47
2023/08/29 08:05:14;;;;;;;0.10;0.10;;;;;;;14.73;100.00;101090.03;5112597;28;20053;-51
2023/08/29 08:07:42;;;;;;;0.10;0.10;;;;;;;14.75;100.00;101089.22;5112053;28;20065;-47
2023/08/29 08:10:08;;;;;;;;;;;;;;;15.02;100.00;101089.66;5116817;28;20265;-46
2023/08/29 08:12:34;;;;;;;0.10;0.10;;;;;;;14.94;100.00;101094.72;5116051;28;19919;-48
2023/08/29 08:15:01;;;;;;;0.10;0.10;;;;;;;15.12;100.00;101094.97;5114968;28;20028;-48
2023/08/29 08:17:27;;;;;;;0.10;0.10;;;;;;;15.19;100.00;101092.47;5115923;28;20112;-47
2023/08/29 08:19:52;;;;;;;0.10;0.10;;;;;;;15.51;100.00;101102.47;5116246;28;20120;-47
2023/08/29 08:22:17;;;;;;;0.10;0.10;;;;;;;15.42;100.00;101098.88;5115189;28;20057;-47
2023/08/29 08:24:43;;;;;;;0.10;0.10;;;;;;;15.85;100.00;101097.72;5116155;28;20020;-48
2023/08/29 08:27:08;;;;;;;0.10;0.10;;;;;;;15.97;100.00;101095.22;5116049;28;20040;-48
2023/08/29 08:29:34;;;;;;;0.10;0.10;;;;;;;15.92;100.00;101100.41;5114905;28;20509;-51
2023/08/29 08:31:59;;;;;;;0.10;0.10;;;;;;;15.93;100.00;101096.06;5116137;28;20024;-51
2023/08/29 08:34:25;;;;;;;0.10;0.10;;;;;;;15.88;100.00;101102.94;5115836;28;20512;-47
2023/08/29 08:36:50;;;;;;;0.00;0.00;;;;;;;15.91;100.00;101102.97;5115251;28;20024;-51
2023/08/29 08:39:15;;;;;;;0.10;0.10;;;;;;;16.03;100.00;101103.09;5115558;28;20028;-48
2023/08/29 08:41:42;;;;;;;0.10;0.10;;;;;;;16.09;100.00;101113.56;5115833;28;20015;-49
2023/08/29 08:44:09;;;;;;;0.10;0.10;;;;;;;16.10;100.00;101104.94;5114960;27;20032;-50
2023/08/29 08:46:35;;;;;;;0.10;0.10;;;;;;;16.31;100.00;101106.00;5115698;28;20059;-46
2023/08/29 08:49:02;;;;;;;0.10;0.10;;;;;;;16.40;100.00;101098.28;5115761;28;20059;-50
2023/08/29 08:51:30;;;;;;;0.10;0.10;;;;;;;16.43;100.00;101100.91;5114083;28;20099;-50
2023/08/29 08:53:56;;;;;;;0.00;0.00;;;;;;;16.61;100.00;101101.94;5113486;28;20036;-51
2023/08/29 08:56:22;;;;;;;0.05;0.05;;;;;;;17.05;100.00;101104.03;5111029;28;20023;-51
2023/08/29 08:58:48;;;;;;;0.10;0.10;;;;;;;17.02;100.00;101098.84;5113146;27;20110;-50
2023/08/29 09:01:14;;;;;;;0.10;0.10;;;;;;;17.49;100.00;101099.97;5113669;28;20035;-51
2023/08/29 09:03:40;;;;;;;0.00;0.00;;;;;;;17.70;100.00;101101.81;5113128;28;20015;-51
2023/08/29 09:06:06;;;;;;;0.08;0.08;;;;;;;17.89;100.00;101094.91;5113987;27;20031;-46
2023/08/29 09:08:31;;;;;;;0.10;0.10;;;;;;;18.01;100.00;101090.66;5113464;28;20024;-50
2023/08/29 09:11:00;;;;;;;0.00;0.00;;;;;;;18.22;100.00;101093.31;5113026;28;20023;-46
2023/08/29 09:13:26;;;;;;;0.10;0.10;;;;;;;18.16;100.00;101097.66;5113302;28;20026;-49
2023/08/29 09:15:51;;;;;;;0.00;0.00;;;;;;;18.07;100.00;101101.97;5113665;28;20016;-48
2023/08/29 09:18:24;;;;;;;0.00;0.00;;;;;;;18.19;100.00;101101.13;5112650;28;20076;-48
2023/08/29 09:20:52;;;;;;;0.10;0.10;;;;;;;18.22;100.00;101103.75;5113460;28;20035;-51
2023/08/29 09:23:24;;;;;;;0.00;0.00;;;;;;;18.16;100.00;101103.72;5113134;28;20058;-46
2023/08/29 09:25:54;;;;;;;0.00;0.00;;;;;;;18.70;100.00;101111.63;5112723;28;20431;-47
2023/08/29 09:28:19;;;;;;;0.00;0.00;;;;;;;18.84;100.00;101111.63;5113229;28;20066;-48
2023/08/29 09:30:45;;;;;;;0.00;0.00;;;;;;;18.82;99.37;101112.50;5113495;28;20008;-51
2023/08/29 09:33:10;;;;;;;0.00;0.00;;;;;;;19.05;96.84;101115.13;5112525;28;20043;-51
2023/08/29 09:35:35;;;;;;;0.00;0.00;;;;;;;18.97;100.00;101115.13;5113217;28;20118;-46
2023/08/29 09:38:01;;;;;;;0.00;0.00;;;;;;;18.89;99.19;101115.13;5110682;28;20366;-50
2023/08/29 09:40:26;;;;;;;0.00;0.00;;;;;;;18.84;95.36;101110.78;5111947;28;20161;-51
2023/08/29 09:42:58;;;;;;;0.00;0.00;;;;;;;19.10;97.50;101110.75;5113040;28;20481;-49
2023/08/29 09:45:23;;;;;;;0.00;0.00;;;;;;;19.12;95.42;101109.03;5112691;28;20027;-47
2023/08/29 09:47:51;;;;;;;0.00;0.00;;;;;;;19.34;96.71;101103.72;5112271;28;20011;-50
2023/08/29 09:50:18;;;;;;;0.00;0.00;;;;;;;19.47;94.26;101105.47;5110166;28;20029;-51
2023/08/29 09:52:43;;;;;;;0.00;0.00;;;;;;;19.64;96.47;101097.53;5112195;28;20016;-50
2023/08/29 09:55:11;;;;;;;0.00;0.00;;;;;;;20.39;95.83;101091.03;5112766;28;20084;-51
2023/08/29 09:57:37;;;;;;;0.00;0.00;;;;;;;20.49;87.33;101091.84;5110495;28;20104;-47
2023/08/29 10:00:04;;;;;;;0.00;0.00;;;;;;;20.76;84.17;101096.91;5112331;28;20109;-53
2023/08/29 10:02:30;;;;;;;0.00;0.00;;;;;;;20.44;82.20;101085.78;5112739;28;20035;-51
2023/08/29 10:05:03;;;;;;;0.00;0.00;;;;;;;20.01;84.96;101097.41;5109896;28;20031;-50
2023/08/29 10:07:40;;;;;;;0.00;0.00;;;;;;;19.65;89.37;101094.06;5111810;28;20019;-53
2023/08/29 10:10:07;;;;;;;0.00;0.00;;;;;;;19.62;88.79;101096.66;5111582;28;20034;-47
2023/08/29 10:12:33;;;;;;;0.00;0.00;;;;;;;19.78;86.78;101089.66;5112575;28;20015;-51
2023/08/29 10:15:00;;;;;;;0.00;0.00;;;;;;;19.79;87.83;101095.72;5111763;28;20015;-52
2023/08/29 10:17:26;;;;;;;0.00;0.00;;;;;;;19.87;89.98;101093.97;5112263;28;20012;-50
2023/08/29 10:19:52;;;;;;;0.00;0.00;;;;;;;20.05;83.06;101088.66;5112248;28;20382;-51
2023/08/29 10:22:18;;;;;;;0.00;0.00;;;;;;;20.37;82.31;101078.84;5111357;28;20019;-50
2023/08/29 10:24:45;;;;;;;0.00;0.00;;;;;;;20.23;85.17;101076.31;5112574;28;20018;-52
2023/08/29 10:27:10;;;;;;;0.00;0.00;;;;;;;20.51;83.16;101076.97;5112200;28;20077;-46
2023/08/29 10:29:37;;;;;;;0.00;0.00;;;;;;;20.35;85.06;101081.47;5111350;28;20020;-48
2023/08/29 10:32:04;;;;;;;0.00;0.00;;;;;;;20.88;82.46;101075.84;5111738;28;20494;-50
2023/08/29 10:34:30;;;;;;;0.00;0.00;;;;;;;20.64;80.28;101082.13;5112075;28;20031;-47
2023/08/29 10:36:56;;;;;;;0.00;0.00;;;;;;;20.21;80.48;101073.72;5111271;28;20069;-50
2023/08/29 10:39:24;;;;;;;0.00;0.00;;;;;;;20.04;81.19;101083.44;5111970;28;20035;-50
2023/08/29 10:41:55;;;;;;;0.00;0.00;;;;;;;19.86;82.86;101077.41;5112358;28;20111;-51
2023/08/29 10:44:36;;;;;;;0.00;0.00;;;;;;;19.73;81.77;101073.97;5109486;28;20012;-48
2023/08/29 10:47:19;;;;;;;0.00;0.00;;;;;;;19.53;85.24;101073.19;5110025;28;20356;-48
2023/08/29 10:49:48;;;;;;;0.00;0.00;;;;;;;19.28;84.12;101072.41;5110049;28;20034;-47
2023/08/29 10:52:14;;;;;;;0.00;0.00;;;;;;;19.17;84.49;101070.69;5111646;28;20026;-51
2023/08/29 10:54:40;;;;;;;0.00;0.00;;;;;;;19.24;84.10;101066.31;5111650;28;20039;-49
2023/08/29 10:57:26;;;;;;;0.00;0.00;;;;;;;19.60;88.83;101059.22;5111077;28;20023;-47
2023/08/29 10:59:52;;;;;;;0.00;0.00;;;;;;;19.50;86.58;101060.13;5111469;28;20024;-49
2023/08/29 11:02:21;;;;;;;0.00;0.00;;;;;;;19.98;86.22;101054.69;5111524;28;20383;-52
2023/08/29 11:04:46;;;;;;;0.00;0.00;;;;;;;20.03;81.82;101051.16;5110986;28;20421;-48
2023/08/29 11:07:23;;;;;;;0.00;0.00;;;;;;;19.98;82.67;101047.69;5111475;28;20095;-49
2023/08/29 11:10:16;;;;;;;0.08;0.08;;;;;;;20.20;85.36;101051.03;5111681;28;20047;-51
2023/08/29 11:13:11;;;;;;;0.00;0.00;;;;;;;20.75;85.38;101059.38;5110060;28;20020;-46
2023/08/29 11:15:48;;;;;;;0.00;0.00;;;;;;;20.76;84.58;101052.38;5108992;28;20024;-45
2023/08/29 11:18:32;;;;;;;0.00;0.00;;;;;;;21.11;82.90;101046.78;5110645;28;20019;-45